Forbes Field
KFOE : now visible

Airfield :











YOU CAN JOIN US ON...

 
LOGIN :

Register | Disclaimer

   EN    FR    IT 

 









Legend :    VFR   Marginal VFR   IFR   Intensive IFR   Very Intensive IFR
Visi :
Ceiling :
>= 8 km
>= 3000ft
5 to 8 km
1000 to 3000 ft
1500m to 5 km
500 to 1000 ft
800 to 1500m
200 to 500 ft
< 800m
< 200 ft
Symbols :   Thunderstorms  Fog  Heavy snow  Heavy precipitations  Wind > 20 kt






- Airport Elevation : 1078 ft
- IATA code : FOE


KFOE - Forbes Field

CURRENT METAR :
  • 280453Z AUTO 34015G28KT 9SM FEW011 BKN017 OVC024 M06/M09 A2995 RMK AO2 PK WND 33033/0401 UPB50E53SNE50 SLP145 P0002 T10611094 $

EXPIRED METARs :
  • 280427Z AUTO 34017G27KT 1/2SM R31/3500V5500FT SN FZFG VV007 M07/M08 A2990 RMK AO2 PK WND 33033/0401 P0002 T10671083 $
  • 280409Z AUTO 34024G33KT 3/4SM R31/6000VP6000FT -SN BR VV012 M06/M08 A2989 RMK AO2 PK WND 33033/0401 P0001 T10611083 $
  • 280353Z 33014G26KT 1 1/4SM -SN BR OVC013 M06/M08 A2989 RMK AO2 PK WND 32042/0305 PRESRR SLP125 P0000 T10561078 $
  • 280321Z 34017G32KT 1 1/4SM -SN BR BKN020 OVC090 M04/M07 A2984 RMK AO2 PK WND 32042/0305 P0000 T10441067 $
  • 280313Z 34024G42KT 2 1/2SM -SN BKN028 OVC090 M04/M08 A2984 RMK AO2 PK WND 32042/0305 P0000 T10441078 $
  • 280253Z 35025G37KT 8SM -SN FEW034 SCT055 OVC090 M03/M09 A2979 RMK AO2 PK WND 33042/0203 UPE24SNB24 SLP093 P0000 60000 T10331094 53060 $
  • 280153Z 35022G35KT 10SM UP CLR M01/M09 A2971 RMK AO2 PK WND 36040/0109 UPB31 SLP066 P0000 T10111089 $
  • 280053Z 35024G31KT 10SM CLR 01/M08 A2966 RMK AO2 PK WND 34036/0021 RAB10E20 SLP052 P0000 T00061078 $

TAF KFOE
Valid from the 28 at 05:00 until the 29 at 00:00 UTC


280440Z 2805/2824 34025G37KT 3SM -SN BKN012
TEMPO 2805/2806 P6SM -SN BKN035
FM280600 35025G35KT P6SM -SN BKN100
FM281500 31011KT P6SM SKC
KZKC FIR / North America



MET'MAP, your aeronautical weather chart ! - Copyright ORBIFLY December 2007 - Disclaimer

ORBIFLY MET'MAP TEAM :

Programming & Development : Alexandra Zaïnal
Original concept : Baudouin d'Aumeries
Technical & hardware support : Manuel Goepfert
Assistance : Marc-Olivier Méhu




SOURCES & CREDITS :

   NOAA       Earth
Advisory